sensor_id;sensor_type;location;lat;lon;timestamp;temperature;humidity
4090;DHT22;2059;48.538;12.146;2023-03-19T00:03:16;9.90;97.50
4090;DHT22;2059;48.538;12.146;2023-03-19T00:08:19;10.00;97.00
4090;DHT22;2059;48.538;12.146;2023-03-19T00:13:22;9.90;97.30
4090;DHT22;2059;48.538;12.146;2023-03-19T00:18:23;9.90;97.40
4090;DHT22;2059;48.538;12.146;2023-03-19T00:23:27;9.90;97.40
4090;DHT22;2059;48.538;12.146;2023-03-19T00:28:28;10.00;96.90
4090;DHT22;2059;48.538;12.146;2023-03-19T00:33:30;9.70;97.40
4090;DHT22;2059;48.538;12.146;2023-03-19T00:38:34;9.70;97.40
4090;DHT22;2059;48.538;12.146;2023-03-19T00:43:36;9.60;97.60
4090;DHT22;2059;48.538;12.146;2023-03-19T00:48:38;9.60;97.50
4090;DHT22;2059;48.538;12.146;2023-03-19T00:53:43;9.60;97.90
4090;DHT22;2059;48.538;12.146;2023-03-19T00:58:45;9.50;97.90
4090;DHT22;2059;48.538;12.146;2023-03-19T01:03:47;9.40;97.90
4090;DHT22;2059;48.538;12.146;2023-03-19T01:08:50;9.30;98.00
4090;DHT22;2059;48.538;12.146;2023-03-19T01:13:52;9.40;98.10
4090;DHT22;2059;48.538;12.146;2023-03-19T01:18:54;9.30;98.20
4090;DHT22;2059;48.538;12.146;2023-03-19T01:23:57;9.40;98.10
4090;DHT22;2059;48.538;12.146;2023-03-19T01:28:59;9.30;98.30
4090;DHT22;2059;48.538;12.146;2023-03-19T01:34:02;9.20;98.60
4090;DHT22;2059;48.538;12.146;2023-03-19T01:39:05;9.10;98.60
4090;DHT22;2059;48.538;12.146;2023-03-19T01:44:22;8.90;98.80
4090;DHT22;2059;48.538;12.146;2023-03-19T01:49:25;8.60;99.50
4090;DHT22;2059;48.538;12.146;2023-03-19T01:54:30;8.70;99.40
4090;DHT22;2059;48.538;12.146;2023-03-19T01:59:35;8.70;99.10
4090;DHT22;2059;48.538;12.146;2023-03-19T02:04:39;8.70;99.00
4090;DHT22;2059;48.538;12.146;2023-03-19T02:09:43;8.20;99.70
4090;DHT22;2059;48.538;12.146;2023-03-19T02:14:46;8.40;99.60
4090;DHT22;2059;48.538;12.146;2023-03-19T02:19:50;8.30;99.60
4090;DHT22;2059;48.538;12.146;2023-03-19T02:25:00;8.50;99.30
4090;DHT22;2059;48.538;12.146;2023-03-19T02:30:18;8.50;99.30
4090;DHT22;2059;48.538;12.146;2023-03-19T02:35:20;8.50;99.50
4090;DHT22;2059;48.538;12.146;2023-03-19T02:40:25;8.40;99.30
4090;DHT22;2059;48.538;12.146;2023-03-19T02:45:30;8.40;99.30
4090;DHT22;2059;48.538;12.146;2023-03-19T02:50:32;8.50;99.10
4090;DHT22;2059;48.538;12.146;2023-03-19T02:55:34;8.00;99.70
4090;DHT22;2059;48.538;12.146;2023-03-19T03:00:37;8.00;99.80
4090;DHT22;2059;48.538;12.146;2023-03-19T03:05:39;8.10;99.50
4090;DHT22;2059;48.538;12.146;2023-03-19T03:10:41;8.00;99.90
4090;DHT22;2059;48.538;12.146;2023-03-19T03:15:44;7.70;99.90
4090;DHT22;2059;48.538;12.146;2023-03-19T03:20:46;7.50;99.90
4090;DHT22;2059;48.538;12.146;2023-03-19T03:25:48;7.70;99.90
4090;DHT22;2059;48.538;12.146;2023-03-19T03:30:57;7.80;99.90
4090;DHT22;2059;48.538;12.146;2023-03-19T03:35:59;7.70;99.90
4090;DHT22;2059;48.538;12.146;2023-03-19T03:41:01;7.70;99.80
4090;DHT22;2059;48.538;12.146;2023-03-19T03:46:05;7.70;99.90
4090;DHT22;2059;48.538;12.146;2023-03-19T03:51:08;7.80;99.90
4090;DHT22;2059;48.538;12.146;2023-03-19T03:56:09;7.80;99.60
4090;DHT22;2059;48.538;12.146;2023-03-19T04:01:14;7.70;99.70
4090;DHT22;2059;48.538;12.146;2023-03-19T04:06:18;7.80;99.50
4090;DHT22;2059;48.538;12.146;2023-03-19T04:11:20;7.40;99.90
4090;DHT22;2059;48.538;12.146;2023-03-19T04:16:24;7.10;99.90
4090;DHT22;2059;48.538;12.146;2023-03-19T04:21:26;7.10;99.90
4090;DHT22;2059;48.538;12.146;2023-03-19T04:26:29;7.30;99.90
4090;DHT22;2059;48.538;12.146;2023-03-19T04:31:32;7.10;99.90
4090;DHT22;2059;48.538;12.146;2023-03-19T04:36:34;7.20;99.90
4090;DHT22;2059;48.538;12.146;2023-03-19T04:41:36;7.00;99.90
4090;DHT22;2059;48.538;12.146;2023-03-19T04:46:39;6.70;99.90
4090;DHT22;2059;48.538;12.146;2023-03-19T04:51:41;6.60;99.90
4090;DHT22;2059;48.538;12.146;2023-03-19T04:56:43;7.00;99.90
4090;DHT22;2059;48.538;12.146;2023-03-19T05:01:46;7.10;99.90
4090;DHT22;2059;48.538;12.146;2023-03-19T05:06:48;7.10;99.90
4090;DHT22;2059;48.538;12.146;2023-03-19T05:11:50;7.30;99.90
4090;DHT22;2059;48.538;12.146;2023-03-19T05:16:53;7.00;99.90
4090;DHT22;2059;48.538;12.146;2023-03-19T05:21:55;7.20;99.90
4090;DHT22;2059;48.538;12.146;2023-03-19T05:26:57;7.10;99.90
4090;DHT22;2059;48.538;12.146;2023-03-19T05:32:00;7.40;99.90
4090;DHT22;2059;48.538;12.146;2023-03-19T05:37:02;7.70;99.90
4090;DHT22;2059;48.538;12.146;2023-03-19T05:42:04;7.90;99.90
4090;DHT22;2059;48.538;12.146;2023-03-19T05:47:09;7.90;99.90
4090;DHT22;2059;48.538;12.146;2023-03-19T05:52:11;8.20;99.80
4090;DHT22;2059;48.538;12.146;2023-03-19T05:57:12;8.50;99.50
4090;DHT22;2059;48.538;12.146;2023-03-19T06:23:23;8.00;99.90
4090;DHT22;2059;48.538;12.146;2023-03-19T06:28:25;8.30;99.90
4090;DHT22;2059;48.538;12.146;2023-03-19T06:33:27;8.10;99.90
4090;DHT22;2059;48.538;12.146;2023-03-19T06:38:32;8.20;99.90
4090;DHT22;2059;48.538;12.146;2023-03-19T06:43:35;8.30;99.90
4090;DHT22;2059;48.538;12.146;2023-03-19T06:48:37;8.50;99.90
4090;DHT22;2059;48.538;12.146;2023-03-19T06:53:40;8.30;99.90
4090;DHT22;2059;48.538;12.146;2023-03-19T06:58:42;8.20;99.90
4090;DHT22;2059;48.538;12.146;2023-03-19T07:03:43;8.70;99.90
4090;DHT22;2059;48.538;12.146;2023-03-19T07:08:46;9.30;99.90
4090;DHT22;2059;48.538;12.146;2023-03-19T07:13:48;9.90;99.20
4090;DHT22;2059;48.538;12.146;2023-03-19T07:18:50;10.20;98.10
4090;DHT22;2059;48.538;12.146;2023-03-19T07:23:53;9.00;99.90
4090;DHT22;2059;48.538;12.146;2023-03-19T07:28:55;9.20;99.90
4090;DHT22;2059;48.538;12.146;2023-03-19T07:33:56;9.30;99.90
4090;DHT22;2059;48.538;12.146;2023-03-19T07:38:59;9.50;99.90
4090;DHT22;2059;48.538;12.146;2023-03-19T07:44:01;9.40;99.90
4090;DHT22;2059;48.538;12.146;2023-03-19T07:49:03;9.90;99.90
4090;DHT22;2059;48.538;12.146;2023-03-19T07:54:06;9.60;99.90
4090;DHT22;2059;48.538;12.146;2023-03-19T07:59:08;10.00;99.90
4090;DHT22;2059;48.538;12.146;2023-03-19T08:04:10;10.10;99.90
4090;DHT22;2059;48.538;12.146;2023-03-19T08:09:14;10.60;99.60
4090;DHT22;2059;48.538;12.146;2023-03-19T08:14:16;10.90;98.90
4090;DHT22;2059;48.538;12.146;2023-03-19T08:19:21;11.00;99.20
4090;DHT22;2059;48.538;12.146;2023-03-19T08:24:25;10.80;98.80
4090;DHT22;2059;48.538;12.146;2023-03-19T08:29:26;11.10;98.60
4090;DHT22;2059;48.538;12.146;2023-03-19T08:34:28;11.60;98.80
4090;DHT22;2059;48.538;12.146;2023-03-19T08:39:31;12.60;97.70
4090;DHT22;2059;48.538;12.146;2023-03-19T08:44:33;13.20;96.70
4090;DHT22;2059;48.538;12.146;2023-03-19T08:49:35;13.40;96.20
4090;DHT22;2059;48.538;12.146;2023-03-19T08:54:38;13.50;95.80
4090;DHT22;2059;48.538;12.146;2023-03-19T08:59:40;13.50;95.70
4090;DHT22;2059;48.538;12.146;2023-03-19T09:04:42;13.70;95.60
4090;DHT22;2059;48.538;12.146;2023-03-19T09:09:45;14.10;95.40
4090;DHT22;2059;48.538;12.146;2023-03-19T09:14:47;14.50;95.20
4090;DHT22;2059;48.538;12.146;2023-03-19T09:19:49;15.00;94.30
4090;DHT22;2059;48.538;12.146;2023-03-19T09:24:52;14.80;94.60
4090;DHT22;2059;48.538;12.146;2023-03-19T09:29:54;14.60;95.10
4090;DHT22;2059;48.538;12.146;2023-03-19T09:34:55;15.50;94.40
4090;DHT22;2059;48.538;12.146;2023-03-19T09:39:59;15.50;94.20
4090;DHT22;2059;48.538;12.146;2023-03-19T09:45:01;15.80;94.10
4090;DHT22;2059;48.538;12.146;2023-03-19T09:50:09;16.20;93.60
4090;DHT22;2059;48.538;12.146;2023-03-19T09:55:26;15.30;93.50
4090;DHT22;2059;48.538;12.146;2023-03-19T10:00:31;14.90;94.30
4090;DHT22;2059;48.538;12.146;2023-03-19T10:05:43;14.80;94.60
4090;DHT22;2059;48.538;12.146;2023-03-19T10:10:51;15.10;94.20
4090;DHT22;2059;48.538;12.146;2023-03-19T10:15:58;14.90;94.90
4090;DHT22;2059;48.538;12.146;2023-03-19T10:21:03;15.50;94.10
4090;DHT22;2059;48.538;12.146;2023-03-19T10:26:11;16.00;93.50
4090;DHT22;2059;48.538;12.146;2023-03-19T10:31:27;16.40;93.40
4090;DHT22;2059;48.538;12.146;2023-03-19T10:36:33;16.70;92.90
4090;DHT22;2059;48.538;12.146;2023-03-19T10:41:46;17.30;92.30
4090;DHT22;2059;48.538;12.146;2023-03-19T10:46:50;17.40;92.50
4090;DHT22;2059;48.538;12.146;2023-03-19T10:51:55;18.30;91.60
4090;DHT22;2059;48.538;12.146;2023-03-19T10:56:59;18.80;91.20
4090;DHT22;2059;48.538;12.146;2023-03-19T11:02:06;18.50;90.70
4090;DHT22;2059;48.538;12.146;2023-03-19T11:07:18;18.40;90.20
4090;DHT22;2059;48.538;12.146;2023-03-19T11:12:26;18.60;90.90
4090;DHT22;2059;48.538;12.146;2023-03-19T11:17:37;19.70;90.50
4090;DHT22;2059;48.538;12.146;2023-03-19T11:22:39;19.90;88.00
4090;DHT22;2059;48.538;12.146;2023-03-19T11:27:43;20.20;87.20
4090;DHT22;2059;48.538;12.146;2023-03-19T11:33:00;19.80;87.60
4090;DHT22;2059;48.538;12.146;2023-03-19T11:38:13;19.30;88.40
4090;DHT22;2059;48.538;12.146;2023-03-19T11:43:42;19.00;89.10
4090;DHT22;2059;48.538;12.146;2023-03-19T11:49:02;18.10;90.40
4090;DHT22;2059;48.538;12.146;2023-03-19T11:54:14;17.80;91.10
4090;DHT22;2059;48.538;12.146;2023-03-19T11:59:31;18.70;90.20
4090;DHT22;2059;48.538;12.146;2023-03-19T12:04:50;19.20;89.60
4090;DHT22;2059;48.538;12.146;2023-03-19T12:10:02;19.10;88.40
4090;DHT22;2059;48.538;12.146;2023-03-19T12:15:15;19.00;88.80
4090;DHT22;2059;48.538;12.146;2023-03-19T12:20:41;18.70;89.70
4090;DHT22;2059;48.538;12.146;2023-03-19T12:25:53;18.50;90.20
4090;DHT22;2059;48.538;12.146;2023-03-19T12:31:31;18.60;89.70
4090;DHT22;2059;48.538;12.146;2023-03-19T12:36:40;17.30;91.40
4090;DHT22;2059;48.538;12.146;2023-03-19T12:41:45;17.50;91.40
4090;DHT22;2059;48.538;12.146;2023-03-19T12:46:54;18.10;90.70
4090;DHT22;2059;48.538;12.146;2023-03-19T12:52:00;17.70;90.00
4090;DHT22;2059;48.538;12.146;2023-03-19T12:57:09;17.50;90.20
4090;DHT22;2059;48.538;12.146;2023-03-19T13:02:20;17.80;90.40
4090;DHT22;2059;48.538;12.146;2023-03-19T13:07:29;18.60;87.40
4090;DHT22;2059;48.538;12.146;2023-03-19T13:12:34;19.50;85.60
4090;DHT22;2059;48.538;12.146;2023-03-19T13:17:47;19.90;83.70
4090;DHT22;2059;48.538;12.146;2023-03-19T13:22:55;19.60;82.90
4090;DHT22;2059;48.538;12.146;2023-03-19T13:28:00;19.60;82.00
4090;DHT22;2059;48.538;12.146;2023-03-19T13:33:04;19.40;83.60
4090;DHT22;2059;48.538;12.146;2023-03-19T13:38:15;19.40;83.40
4090;DHT22;2059;48.538;12.146;2023-03-19T13:48:52;19.30;84.00
4090;DHT22;2059;48.538;12.146;2023-03-19T13:53:58;19.20;83.10
4090;DHT22;2059;48.538;12.146;2023-03-19T13:59:24;19.20;81.60
4090;DHT22;2059;48.538;12.146;2023-03-19T14:04:29;19.30;81.90
4090;DHT22;2059;48.538;12.146;2023-03-19T14:09:37;19.10;82.10
4090;DHT22;2059;48.538;12.146;2023-03-19T14:14:40;19.00;82.80
4090;DHT22;2059;48.538;12.146;2023-03-19T14:19:43;18.70;83.20
4090;DHT22;2059;48.538;12.146;2023-03-19T14:24:53;17.80;83.80
4090;DHT22;2059;48.538;12.146;2023-03-19T14:29:57;17.50;84.20
4090;DHT22;2059;48.538;12.146;2023-03-19T14:35:03;17.20;85.50
4090;DHT22;2059;48.538;12.146;2023-03-19T14:40:11;17.30;85.30
4090;DHT22;2059;48.538;12.146;2023-03-19T14:45:38;17.10;86.40
4090;DHT22;2059;48.538;12.146;2023-03-19T14:51:03;17.00;86.60
4090;DHT22;2059;48.538;12.146;2023-03-19T14:56:13;16.90;87.10
4090;DHT22;2059;48.538;12.146;2023-03-19T15:01:15;16.60;88.00
4090;DHT22;2059;48.538;12.146;2023-03-19T15:06:19;16.50;89.40
4090;DHT22;2059;48.538;12.146;2023-03-19T15:11:44;16.00;90.40
4090;DHT22;2059;48.538;12.146;2023-03-19T15:16:55;16.40;90.40
4090;DHT22;2059;48.538;12.146;2023-03-19T15:22:11;16.30;90.20
4090;DHT22;2059;48.538;12.146;2023-03-19T15:27:21;16.90;90.50
4090;DHT22;2059;48.538;12.146;2023-03-19T15:32:30;16.80;90.50
4090;DHT22;2059;48.538;12.146;2023-03-19T15:37:36;17.30;90.10
4090;DHT22;2059;48.538;12.146;2023-03-19T15:42:40;17.80;89.90
4090;DHT22;2059;48.538;12.146;2023-03-19T15:47:46;18.30;88.10
4090;DHT22;2059;48.538;12.146;2023-03-19T15:52:52;18.90;86.90
4090;DHT22;2059;48.538;12.146;2023-03-19T15:57:57;19.00;85.80
4090;DHT22;2059;48.538;12.146;2023-03-19T16:03:04;20.50;83.30
4090;DHT22;2059;48.538;12.146;2023-03-19T16:08:16;22.40;79.30
4090;DHT22;2059;48.538;12.146;2023-03-19T16:13:22;23.70;74.20
4090;DHT22;2059;48.538;12.146;2023-03-19T16:18:27;21.70;77.50
4090;DHT22;2059;48.538;12.146;2023-03-19T16:23:34;19.90;79.90
4090;DHT22;2059;48.538;12.146;2023-03-19T16:28:40;18.60;83.10
4090;DHT22;2059;48.538;12.146;2023-03-19T16:33:42;18.20;83.60
4090;DHT22;2059;48.538;12.146;2023-03-19T16:38:52;17.60;84.90
4090;DHT22;2059;48.538;12.146;2023-03-19T16:43:54;17.40;84.70
4090;DHT22;2059;48.538;12.146;2023-03-19T16:48:56;17.20;86.30
4090;DHT22;2059;48.538;12.146;2023-03-19T16:54:00;17.00;86.40
4090;DHT22;2059;48.538;12.146;2023-03-19T16:59:02;16.60;87.10
4090;DHT22;2059;48.538;12.146;2023-03-19T17:04:08;16.30;88.30
4090;DHT22;2059;48.538;12.146;2023-03-19T17:09:14;16.00;89.20
4090;DHT22;2059;48.538;12.146;2023-03-19T17:14:19;15.70;90.10
4090;DHT22;2059;48.538;12.146;2023-03-19T17:19:22;15.50;90.40
4090;DHT22;2059;48.538;12.146;2023-03-19T17:24:27;15.20;90.80
4090;DHT22;2059;48.538;12.146;2023-03-19T17:29:30;15.10;91.30
4090;DHT22;2059;48.538;12.146;2023-03-19T17:34:32;14.80;91.70
4090;DHT22;2059;48.538;12.146;2023-03-19T17:39:37;14.70;91.80
4090;DHT22;2059;48.538;12.146;2023-03-19T17:44:41;14.50;92.10
4090;DHT22;2059;48.538;12.146;2023-03-19T17:49:43;14.50;92.30
4090;DHT22;2059;48.538;12.146;2023-03-19T17:54:46;14.50;92.50
4090;DHT22;2059;48.538;12.146;2023-03-19T17:59:49;14.30;92.90
4090;DHT22;2059;48.538;12.146;2023-03-19T18:04:51;14.20;93.00
4090;DHT22;2059;48.538;12.146;2023-03-19T18:09:54;14.00;93.30
4090;DHT22;2059;48.538;12.146;2023-03-19T18:14:56;14.00;93.60
4090;DHT22;2059;48.538;12.146;2023-03-19T18:19:57;13.90;93.80
4090;DHT22;2059;48.538;12.146;2023-03-19T18:25:01;13.80;94.00
4090;DHT22;2059;48.538;12.146;2023-03-19T18:30:03;13.70;94.00
4090;DHT22;2059;48.538;12.146;2023-03-19T18:35:08;13.70;94.20
4090;DHT22;2059;48.538;12.146;2023-03-19T18:40:14;13.60;94.10
4090;DHT22;2059;48.538;12.146;2023-03-19T18:45:17;13.60;94.30
4090;DHT22;2059;48.538;12.146;2023-03-19T18:50:22;13.70;94.30
4090;DHT22;2059;48.538;12.146;2023-03-19T18:55:27;13.60;94.50
4090;DHT22;2059;48.538;12.146;2023-03-19T19:00:32;13.40;94.50
4090;DHT22;2059;48.538;12.146;2023-03-19T19:05:34;13.40;94.50
4090;DHT22;2059;48.538;12.146;2023-03-19T19:10:38;13.40;95.20
4090;DHT22;2059;48.538;12.146;2023-03-19T19:15:40;13.30;95.20
4090;DHT22;2059;48.538;12.146;2023-03-19T19:20:43;13.30;95.20
4090;DHT22;2059;48.538;12.146;2023-03-19T19:25:49;13.10;95.20
4090;DHT22;2059;48.538;12.146;2023-03-19T19:30:52;13.10;95.40
4090;DHT22;2059;48.538;12.146;2023-03-19T19:35:56;13.00;95.70
4090;DHT22;2059;48.538;12.146;2023-03-19T19:41:00;12.90;95.80
4090;DHT22;2059;48.538;12.146;2023-03-19T19:46:03;12.80;96.00
4090;DHT22;2059;48.538;12.146;2023-03-19T19:51:06;12.70;96.20
4090;DHT22;2059;48.538;12.146;2023-03-19T19:56:14;12.30;97.40
4090;DHT22;2059;48.538;12.146;2023-03-19T20:01:19;12.40;97.30
4090;DHT22;2059;48.538;12.146;2023-03-19T20:06:21;12.50;97.10
4090;DHT22;2059;48.538;12.146;2023-03-19T20:11:24;12.50;97.00
4090;DHT22;2059;48.538;12.146;2023-03-19T20:16:27;12.50;97.20
4090;DHT22;2059;48.538;12.146;2023-03-19T20:21:28;12.10;98.30
4090;DHT22;2059;48.538;12.146;2023-03-19T20:26:32;11.90;99.00
4090;DHT22;2059;48.538;12.146;2023-03-19T20:31:34;11.70;99.30
4090;DHT22;2059;48.538;12.146;2023-03-19T20:36:36;11.70;99.50
4090;DHT22;2059;48.538;12.146;2023-03-19T20:41:40;12.10;98.80
4090;DHT22;2059;48.538;12.146;2023-03-19T20:46:42;11.90;99.00
4090;DHT22;2059;48.538;12.146;2023-03-19T20:51:45;11.70;99.80
4090;DHT22;2059;48.538;12.146;2023-03-19T20:56:48;12.00;99.30
4090;DHT22;2059;48.538;12.146;2023-03-19T21:01:50;11.60;99.90
4090;DHT22;2059;48.538;12.146;2023-03-19T21:06:52;11.90;99.50
4090;DHT22;2059;48.538;12.146;2023-03-19T21:11:55;11.90;99.20
4090;DHT22;2059;48.538;12.146;2023-03-19T21:16:57;11.70;99.30
4090;DHT22;2059;48.538;12.146;2023-03-19T21:21:59;11.60;99.50
4090;DHT22;2059;48.538;12.146;2023-03-19T21:27:02;11.70;99.60
4090;DHT22;2059;48.538;12.146;2023-03-19T21:32:09;11.50;99.80
4090;DHT22;2059;48.538;12.146;2023-03-19T21:37:13;11.60;99.70
4090;DHT22;2059;48.538;12.146;2023-03-19T21:42:19;11.80;99.60
4090;DHT22;2059;48.538;12.146;2023-03-19T21:47:22;11.90;99.50
4090;DHT22;2059;48.538;12.146;2023-03-19T21:52:25;12.10;99.20
4090;DHT22;2059;48.538;12.146;2023-03-19T21:57:28;12.30;99.10
4090;DHT22;2059;48.538;12.146;2023-03-19T22:02:37;12.20;99.20
4090;DHT22;2059;48.538;12.146;2023-03-19T22:07:39;12.10;99.80
4090;DHT22;2059;48.538;12.146;2023-03-19T22:12:43;12.10;99.90
4090;DHT22;2059;48.538;12.146;2023-03-19T22:17:46;12.00;99.90
4090;DHT22;2059;48.538;12.146;2023-03-19T22:22:49;11.90;99.90
4090;DHT22;2059;48.538;12.146;2023-03-19T22:27:53;11.80;99.90
4090;DHT22;2059;48.538;12.146;2023-03-19T22:32:55;11.80;99.90
4090;DHT22;2059;48.538;12.146;2023-03-19T22:37:58;11.60;99.90
4090;DHT22;2059;48.538;12.146;2023-03-19T22:43:03;11.90;99.90
4090;DHT22;2059;48.538;12.146;2023-03-19T22:48:11;12.00;99.90
4090;DHT22;2059;48.538;12.146;2023-03-19T22:53:27;12.00;99.90
4090;DHT22;2059;48.538;12.146;2023-03-19T22:58:30;11.70;99.90
4090;DHT22;2059;48.538;12.146;2023-03-19T23:03:32;11.60;99.90
4090;DHT22;2059;48.538;12.146;2023-03-19T23:08:35;11.60;99.90
4090;DHT22;2059;48.538;12.146;2023-03-19T23:13:38;11.40;99.90
4090;DHT22;2059;48.538;12.146;2023-03-19T23:18:40;11.60;99.90
4090;DHT22;2059;48.538;12.146;2023-03-19T23:23:41;11.90;99.90
4090;DHT22;2059;48.538;12.146;2023-03-19T23:28:44;11.60;99.90
4090;DHT22;2059;48.538;12.146;2023-03-19T23:33:46;11.30;99.90
4090;DHT22;2059;48.538;12.146;2023-03-19T23:38:48;10.80;99.90
4090;DHT22;2059;48.538;12.146;2023-03-19T23:43:53;10.90;99.90
4090;DHT22;2059;48.538;12.146;2023-03-19T23:48:59;10.90;99.90
4090;DHT22;2059;48.538;12.146;2023-03-19T23:54:01;11.10;99.90
4090;DHT22;2059;48.538;12.146;2023-03-19T23:59:04;11.10;99.90
